createdAt,value
2023-03-05T00:04:47.590Z,100056.98
2023-03-05T00:09:51.193Z,100055.61
2023-03-05T00:14:54.747Z,100047.64
2023-03-05T00:20:01.914Z,100052.54
2023-03-05T00:25:08.070Z,100058.29
2023-03-05T00:30:14.179Z,100046.91
2023-03-05T00:35:18.464Z,100040.79
2023-03-05T00:40:22.793Z,100033.16
2023-03-05T00:45:26.411Z,100029.10
2023-03-05T00:50:30.158Z,100018.08
2023-03-05T00:55:35.499Z,100008.42
2023-03-05T01:00:38.946Z,100006.89
2023-03-05T01:05:43.336Z,100000.61
2023-03-05T01:10:47.253Z,99997.21
2023-03-05T01:15:50.621Z,99991.92
2023-03-05T01:20:54.362Z,99985.49
2023-03-05T01:25:59.249Z,99977.02
2023-03-05T01:31:06.443Z,99974.79
2023-03-05T01:36:14.522Z,99966.84
2023-03-05T01:41:18.879Z,99967.67
2023-03-05T01:46:28.972Z,99960.40
2023-03-05T01:51:38.039Z,99963.95
2023-03-05T01:56:43.406Z,99956.34
2023-03-05T02:01:53.068Z,99953.13
2023-03-05T02:06:56.858Z,99952.95
2023-03-05T02:12:00.348Z,99949.92
2023-03-05T02:17:04.009Z,99948.90
2023-03-05T02:22:15.052Z,99951.45
2023-03-05T02:27:22.607Z,99952.11
2023-03-05T02:32:26.283Z,99952.11
2023-03-05T02:37:29.846Z,99941.93
2023-03-05T02:42:33.710Z,99933.59
2023-03-05T02:47:38.373Z,99930.48
2023-03-05T02:52:43.521Z,99928.43
2023-03-05T02:57:50.756Z,99920.61
2023-03-05T03:02:54.392Z,99915.37
2023-03-05T03:07:57.840Z,99910.11
2023-03-05T03:13:01.378Z,99906.35
2023-03-05T03:18:05.333Z,99905.48
2023-03-05T03:23:08.826Z,99899.73
2023-03-05T03:28:12.354Z,99891.75
2023-03-05T03:33:17.646Z,99886.48
2023-03-05T03:38:21.313Z,99878.05
2023-03-05T03:43:24.749Z,99873.27
2023-03-05T03:48:28.166Z,99859.74
2023-03-05T03:53:31.884Z,99852.80
2023-03-05T03:58:35.268Z,99848.05
2023-03-05T04:03:38.761Z,99837.57
2023-03-05T04:08:42.149Z,99831.81
2023-03-05T04:13:45.655Z,99830.98
2023-03-05T04:18:49.158Z,99829.95
2023-03-05T04:23:52.755Z,99821.52
2023-03-05T04:28:56.240Z,99814.09
2023-03-05T04:34:00.653Z,99807.16
2023-03-05T04:39:04.346Z,99796.88
2023-03-05T04:44:08.008Z,99788.59
2023-03-05T04:49:11.489Z,99783.88
2023-03-05T04:54:14.956Z,99782.71
2023-03-05T04:59:18.321Z,99774.45
2023-03-05T05:04:22.052Z,99771.25
2023-03-05T05:09:25.908Z,99770.10
2023-03-05T05:14:29.310Z,99775.36
2023-03-05T05:19:34.141Z,99778.43
2023-03-05T05:24:37.773Z,99782.15
2023-03-05T05:29:41.421Z,99777.91
2023-03-05T05:34:44.867Z,99766.91
2023-03-05T05:39:49.674Z,99765.23
2023-03-05T05:44:54.798Z,99761.52
2023-03-05T05:49:58.750Z,99758.14
2023-03-05T05:55:02.395Z,99755.61
2023-03-05T06:00:09.968Z,99751.57
2023-03-05T06:05:15.955Z,99748.70
2023-03-05T06:10:19.587Z,99747.02
2023-03-05T06:15:24.279Z,99741.80
2023-03-05T06:20:28.057Z,99739.96
2023-03-05T06:25:31.586Z,99736.93
2023-03-05T06:30:35.036Z,99730.34
2023-03-05T06:35:39.387Z,99726.98
2023-03-05T06:40:42.845Z,99720.05
2023-03-05T06:45:46.582Z,99725.45
2023-03-05T06:50:50.067Z,99720.04
2023-03-05T06:55:53.912Z,99723.95
2023-03-05T07:00:57.453Z,99729.00
2023-03-05T07:06:03.785Z,99733.24
2023-03-05T07:11:11.188Z,99730.73
2023-03-05T07:16:17.885Z,99729.39
2023-03-05T07:21:23.364Z,99728.21
2023-03-05T07:26:28.375Z,99725.70
2023-03-05T07:31:32.408Z,99723.17
2023-03-05T07:36:37.440Z,99718.98
2023-03-05T07:41:40.979Z,99714.23
2023-03-05T07:46:45.145Z,99715.93
2023-03-05T07:51:48.643Z,99712.20
2023-03-05T07:56:54.889Z,99717.11
2023-03-05T08:01:59.276Z,99709.32
2023-03-05T08:07:03.460Z,99706.09
2023-03-05T08:12:09.740Z,99703.58
2023-03-05T08:17:13.320Z,99704.74
2023-03-05T08:22:19.864Z,99719.82
2023-03-05T08:27:23.664Z,99708.98
2023-03-05T08:32:27.302Z,99713.20
2023-03-05T08:37:31.133Z,99720.83
2023-03-05T08:42:34.723Z,99720.83
2023-03-05T08:47:38.214Z,99723.02
2023-03-05T08:52:41.999Z,99708.48
2023-03-05T08:57:45.445Z,99708.64
2023-03-05T09:02:49.035Z,99713.21
2023-03-05T09:07:52.694Z,99711.19
2023-03-05T09:12:56.191Z,99707.96
2023-03-05T09:17:59.751Z,99708.64
2023-03-05T09:23:03.547Z,99707.11
2023-03-05T09:28:07.173Z,99703.22
2023-03-05T09:33:10.723Z,99709.31
2023-03-05T09:38:14.239Z,99710.69
2023-03-05T09:43:29.608Z,99716.10
2023-03-05T09:48:47.840Z,99711.02
2023-03-05T09:54:02.816Z,99710.52
2023-03-05T09:59:20.765Z,99704.59
2023-03-05T10:04:29.052Z,99696.95
2023-03-05T10:09:44.778Z,99688.46
2023-03-05T10:14:49.878Z,99686.20
2023-03-05T10:20:25.374Z,99678.68
2023-03-05T10:25:43.370Z,99678.45
2023-03-05T10:31:18.846Z,99666.88
2023-03-05T10:36:46.244Z,99661.27
2023-03-05T10:42:05.222Z,99659.60
2023-03-05T10:47:21.299Z,99640.79
2023-03-05T10:52:31.904Z,99630.20
2023-03-05T10:57:35.698Z,99624.69
2023-03-05T11:02:55.300Z,99624.09
2023-03-05T11:07:58.695Z,99626.53
2023-03-05T11:13:22.041Z,99625.58
2023-03-05T11:18:25.541Z,99619.35
2023-03-05T11:23:28.860Z,99610.88
2023-03-05T11:28:35.645Z,99607.79
2023-03-05T11:33:39.130Z,99594.41
2023-03-05T11:38:50.836Z,99586.95
2023-03-05T11:43:55.447Z,99577.66
2023-03-05T11:48:59.075Z,99575.58
2023-03-05T11:54:08.783Z,99571.25
2023-03-05T11:59:17.547Z,99563.16
2023-03-05T12:04:22.063Z,99561.21
2023-03-05T12:09:29.862Z,99557.01
2023-03-05T12:14:44.027Z,99568.93
2023-03-05T12:19:57.428Z,99574.60
2023-03-05T12:25:26.007Z,99574.17
2023-03-05T12:30:57.615Z,99563.08
2023-03-05T12:36:42.365Z,99556.12
2023-03-05T12:41:45.723Z,99552.52
2023-03-05T12:47:18.566Z,99544.32
2023-03-05T12:52:29.073Z,99534.54
2023-03-05T12:57:34.531Z,99530.38
2023-03-05T13:02:42.390Z,99527.73
2023-03-05T13:07:47.186Z,99525.33
2023-03-05T13:12:53.185Z,99520.73
2023-03-05T13:17:58.439Z,99527.05
2023-03-05T13:23:18.053Z,99527.09
2023-03-05T13:28:21.567Z,99526.88
2023-03-05T13:33:27.907Z,99525.86
2023-03-05T13:38:36.448Z,99525.85
2023-03-05T13:43:48.307Z,99528.44
2023-03-05T13:48:52.706Z,99542.55
2023-03-05T13:53:56.680Z,99556.41
2023-03-05T13:59:00.448Z,99548.25
2023-03-05T14:04:08.519Z,99540.85
2023-03-05T14:09:21.517Z,99533.44
2023-03-05T14:14:26.048Z,99527.70
2023-03-05T14:19:37.271Z,99520.05
2023-03-05T14:24:51.052Z,99518.92
2023-03-05T14:29:54.757Z,99516.60
2023-03-05T14:34:59.886Z,99514.73
2023-03-05T14:40:06.184Z,99510.98
2023-03-05T14:45:15.053Z,99515.84
2023-03-05T14:50:20.809Z,99509.14
2023-03-05T14:55:26.348Z,99511.09
2023-03-05T15:00:30.323Z,99510.17
2023-03-05T15:05:33.928Z,99506.70
2023-03-05T15:10:37.260Z,99501.84
2023-03-05T15:15:41.263Z,99506.33
2023-03-05T15:20:45.274Z,99508.77
2023-03-05T15:25:49.044Z,99511.52
2023-03-05T15:30:52.565Z,99511.23
2023-03-05T15:35:56.216Z,99508.80
2023-03-05T15:41:01.934Z,99503.48
2023-03-05T15:46:07.158Z,99505.08
2023-03-05T15:51:10.677Z,99505.79
2023-03-05T15:56:18.128Z,99505.30
2023-03-05T16:01:23.217Z,99502.30
2023-03-05T16:06:27.919Z,99501.31
2023-03-05T16:11:34.693Z,99500.65
2023-03-05T16:16:38.873Z,99503.39
2023-03-05T16:21:42.594Z,99499.35
2023-03-05T16:26:46.133Z,99500.71
2023-03-05T16:31:49.540Z,99496.16
2023-03-05T16:36:53.208Z,99494.83
2023-03-05T16:41:57.204Z,99497.21
2023-03-05T16:47:00.939Z,99497.73
2023-03-05T16:52:16.500Z,99498.42
2023-03-05T16:57:24.788Z,99498.45
2023-03-05T17:02:28.460Z,99497.94
2023-03-05T17:07:32.059Z,99502.52
2023-03-05T17:12:35.716Z,99517.23
2023-03-05T17:17:40.052Z,99522.12
2023-03-05T17:22:43.601Z,99531.75
2023-03-05T17:27:47.509Z,99532.60
2023-03-05T17:32:53.453Z,99532.27
2023-03-05T17:37:57.314Z,99536.30
2023-03-05T17:43:02.529Z,99539.53
2023-03-05T17:48:07.883Z,99534.79
2023-03-05T17:53:11.575Z,99531.90
2023-03-05T17:58:15.117Z,99523.80
2023-03-05T18:03:18.483Z,99518.71
2023-03-05T18:08:21.920Z,99506.56
2023-03-05T18:13:25.524Z,99507.90
2023-03-05T18:18:29.022Z,99501.48
2023-03-05T18:23:32.492Z,99505.35
2023-03-05T18:28:36.024Z,99505.85
2023-03-05T18:33:39.448Z,99500.45
2023-03-05T18:38:43.031Z,99497.23
2023-03-05T18:43:46.605Z,99497.57
2023-03-05T18:48:50.154Z,99490.13
2023-03-05T18:53:54.468Z,99494.66
2023-03-05T18:58:58.909Z,99493.82
2023-03-05T19:04:03.059Z,99493.30
2023-03-05T19:09:16.553Z,99495.30
2023-03-05T19:14:20.727Z,99491.08
2023-03-05T19:19:24.780Z,99490.39
2023-03-05T19:24:30.154Z,99486.34
2023-03-05T19:29:37.018Z,99487.34
2023-03-05T19:34:40.927Z,99486.52
2023-03-05T19:39:44.318Z,99484.99
2023-03-05T19:44:47.962Z,99480.95
2023-03-05T19:49:51.712Z,99475.39
2023-03-05T19:54:55.251Z,99476.89
2023-03-05T19:59:58.880Z,99483.30
2023-03-05T20:05:02.436Z,99480.79
2023-03-05T20:10:07.403Z,99480.77
2023-03-05T20:15:11.469Z,99478.74
2023-03-05T20:20:18.045Z,99473.85
2023-03-05T20:25:24.062Z,99477.23
2023-03-05T20:30:28.100Z,99472.52
2023-03-05T20:35:31.857Z,99469.81
2023-03-05T20:40:35.712Z,99471.17
2023-03-05T20:45:39.419Z,99476.38
2023-03-05T20:50:43.009Z,99470.81
2023-03-05T20:55:46.607Z,99468.97
2023-03-05T21:00:50.173Z,99470.33
2023-03-05T21:05:55.799Z,99468.46
2023-03-05T21:11:00.141Z,99468.13
2023-03-05T21:16:07.963Z,99467.13
2023-03-05T21:21:11.640Z,99462.73
2023-03-05T21:26:15.418Z,99458.52
2023-03-05T21:31:21.338Z,99455.30
2023-03-05T21:36:24.796Z,99450.59
2023-03-05T21:41:29.275Z,99448.38
2023-03-05T21:46:34.570Z,99444.84
2023-03-05T21:51:48.868Z,99446.19
2023-03-05T21:56:52.339Z,99437.77
2023-03-05T22:01:55.923Z,99434.20
2023-03-05T22:06:59.471Z,99434.89
2023-03-05T22:12:04.080Z,99426.45
2023-03-05T22:17:07.711Z,99420.89
2023-03-05T22:22:11.279Z,99417.35
2023-03-05T22:27:14.856Z,99409.59
2023-03-05T22:32:18.321Z,99401.66
2023-03-05T22:37:21.881Z,99402.16
2023-03-05T22:42:25.467Z,99405.54
2023-03-05T22:47:29.279Z,99403.85
2023-03-05T22:52:32.743Z,99397.27
2023-03-05T22:57:36.329Z,99396.44
2023-03-05T23:02:40.938Z,99397.28
2023-03-05T23:07:45.563Z,99390.53
2023-03-05T23:12:51.393Z,99389.52
2023-03-05T23:17:55.045Z,99385.13
2023-03-05T23:22:59.092Z,99388.64
2023-03-05T23:28:03.316Z,99386.27
2023-03-05T23:33:08.207Z,99384.73
2023-03-05T23:38:13.949Z,99385.36
2023-03-05T23:43:18.873Z,99384.65
2023-03-05T23:48:24.322Z,99386.63
2023-03-05T23:53:30.501Z,99376.13
2023-03-05T23:58:35.622Z,99375.23
